createdAt,value
2018-05-02T00:01:06.241Z,98822.13
2018-05-02T00:03:39.901Z,98810.39
2018-05-02T00:06:13.414Z,98817.83
2018-05-02T00:08:46.980Z,98816.92
2018-05-02T00:11:20.660Z,98816.95
2018-05-02T00:13:54.216Z,98819.91
2018-05-02T00:16:27.784Z,98819.48
2018-05-02T00:19:01.469Z,98817.76
2018-05-02T00:21:35.262Z,98812.87
2018-05-02T00:24:08.850Z,98817.53
2018-05-02T00:26:42.411Z,98816.78
2018-05-02T00:29:15.940Z,98808.83
2018-05-02T00:31:49.563Z,98813.84
2018-05-02T00:34:23.146Z,98811.80
2018-05-02T00:36:56.704Z,98811.06
2018-05-02T00:39:30.270Z,98815.11
2018-05-02T00:42:03.794Z,98817.13
2018-05-02T00:44:37.362Z,98811.84
2018-05-02T00:47:11.054Z,98812.28
2018-05-02T00:49:44.711Z,98810.98
2018-05-02T00:52:18.275Z,98810.44
2018-05-02T00:54:51.839Z,98806.88
2018-05-02T00:57:25.561Z,98810.03
2018-05-02T00:59:59.259Z,98809.32
2018-05-02T01:02:32.962Z,98810.13
2018-05-02T01:05:06.519Z,98816.77
2018-05-02T01:07:40.271Z,98813.38
2018-05-02T01:10:13.861Z,98818.39
2018-05-02T01:12:47.459Z,98812.51
2018-05-02T01:15:21.222Z,98815.78
2018-05-02T01:17:54.770Z,98816.83
2018-05-02T01:20:28.323Z,98819.00
2018-05-02T01:23:02.114Z,98814.32
2018-05-02T01:25:35.677Z,98816.78
2018-05-02T01:28:09.329Z,98816.40
2018-05-02T01:30:42.968Z,98818.14
2018-05-02T01:33:16.669Z,98816.28
2018-05-02T01:35:50.211Z,98822.80
2018-05-02T01:38:23.831Z,98819.97
2018-05-02T01:40:57.831Z,98821.77
2018-05-02T01:43:31.324Z,98810.59
2018-05-02T01:46:04.964Z,98808.76
2018-05-02T01:48:38.728Z,98807.15
2018-05-02T01:51:12.385Z,98806.34
2018-05-02T01:53:46.011Z,98810.17
2018-05-02T01:56:19.699Z,98807.50
2018-05-02T01:58:53.315Z,98802.39
2018-05-02T02:01:27.066Z,98804.13
2018-05-02T02:04:00.596Z,98799.55
2018-05-02T02:06:34.140Z,98792.41
2018-05-02T02:09:07.797Z,98785.44
2018-05-02T02:11:41.499Z,98782.48
2018-05-02T02:14:15.222Z,98781.84
2018-05-02T02:16:48.899Z,98770.95
2018-05-02T02:19:22.360Z,98777.69
2018-05-02T02:21:55.986Z,98784.17
2018-05-02T02:24:29.620Z,98777.40
2018-05-02T02:27:03.149Z,98780.66
2018-05-02T02:29:36.655Z,98773.91
2018-05-02T02:32:10.473Z,98772.98
2018-05-02T02:34:44.160Z,98763.27
2018-05-02T02:37:17.703Z,98768.16
2018-05-02T02:39:51.341Z,98760.07
2018-05-02T02:42:24.935Z,98765.97
2018-05-02T02:44:58.801Z,98762.25
2018-05-02T02:47:32.325Z,98753.61
2018-05-02T02:50:05.886Z,98750.02
2018-05-02T02:52:39.617Z,98751.53
2018-05-02T02:55:13.232Z,98751.48
2018-05-02T02:57:46.871Z,98749.45
2018-05-02T03:00:20.573Z,98758.77
2018-05-02T03:02:54.056Z,98758.80
2018-05-02T03:05:27.652Z,98755.97
2018-05-02T03:08:01.322Z,98757.16
2018-05-02T03:10:34.930Z,98754.16
2018-05-02T03:13:08.505Z,98760.63
2018-05-02T03:15:42.105Z,98754.06
2018-05-02T03:18:15.672Z,98760.80
2018-05-02T03:20:49.208Z,98760.39
2018-05-02T03:23:22.827Z,98762.72
2018-05-02T03:25:56.440Z,98763.69
2018-05-02T03:28:30.092Z,98766.64
2018-05-02T03:31:03.840Z,98764.09
2018-05-02T03:33:37.363Z,98763.05
2018-05-02T03:36:11.120Z,98766.17
2018-05-02T03:38:44.749Z,98763.39
2018-05-02T03:41:18.364Z,98764.80
2018-05-02T03:43:52.008Z,98767.27
2018-05-02T03:46:25.614Z,98768.34
2018-05-02T03:48:59.248Z,98764.17
2018-05-02T03:51:32.812Z,98763.79
2018-05-02T03:54:06.321Z,98766.89
2018-05-02T03:56:39.900Z,98767.81
2018-05-02T03:59:13.892Z,98770.27
2018-05-02T04:01:59.299Z,98772.27
2018-05-02T04:04:45.625Z,98775.77
2018-05-02T04:07:19.416Z,98772.27
2018-05-02T04:09:53.012Z,98775.64
2018-05-02T04:12:26.641Z,98783.08
2018-05-02T04:15:00.280Z,98785.86
2018-05-02T04:17:33.920Z,98780.87
2018-05-02T04:20:07.623Z,98780.20
2018-05-02T04:22:41.158Z,98780.87
2018-05-02T04:25:14.835Z,98792.02
2018-05-02T04:27:48.496Z,98789.15
2018-05-02T04:30:22.124Z,98801.36
2018-05-02T04:32:55.746Z,98799.45
2018-05-02T04:35:29.637Z,98804.67
2018-05-02T04:38:03.288Z,98806.16
2018-05-02T04:40:36.928Z,98800.19
2018-05-02T04:43:10.679Z,98797.47
2018-05-02T04:45:44.356Z,98793.28
2018-05-02T04:48:18.047Z,98789.06
2018-05-02T04:50:51.670Z,98795.72
2018-05-02T04:53:25.260Z,98801.61
2018-05-02T04:55:58.836Z,98801.14
2018-05-02T04:58:32.482Z,98798.69
2018-05-02T05:01:06.151Z,98799.84
2018-05-02T05:03:39.783Z,98804.66
2018-05-02T05:06:13.636Z,98809.50
2018-05-02T05:08:47.200Z,98804.36
2018-05-02T05:11:20.742Z,98808.48
2018-05-02T05:13:54.384Z,98816.25
2018-05-02T05:16:28.509Z,98819.02
2018-05-02T05:19:02.165Z,98821.23
2018-05-02T05:21:35.843Z,98826.52
2018-05-02T05:24:09.517Z,98825.27
2018-05-02T05:26:43.080Z,98821.90
2018-05-02T05:29:16.687Z,98820.20
2018-05-02T05:31:50.372Z,98815.14
2018-05-02T05:34:23.980Z,98818.81
2018-05-02T05:36:57.651Z,98820.47
2018-05-02T05:39:31.195Z,98820.36
2018-05-02T05:42:05.014Z,98814.16
2018-05-02T05:44:38.603Z,98815.52
2018-05-02T05:47:12.257Z,98813.06
2018-05-02T05:49:45.847Z,98815.73
2018-05-02T05:52:19.415Z,98815.70
2018-05-02T05:54:53.101Z,98819.56
2018-05-02T05:57:26.659Z,98823.77
2018-05-02T06:00:00.277Z,98819.78
2018-05-02T06:02:33.908Z,98824.48
2018-05-02T06:05:07.559Z,98820.52
2018-05-02T06:07:41.225Z,98814.88
2018-05-02T06:10:14.755Z,98817.05
2018-05-02T06:12:48.350Z,98813.50
2018-05-02T06:15:21.949Z,98809.63
2018-05-02T06:17:55.470Z,98813.20
2018-05-02T06:20:29.770Z,98808.20
2018-05-02T06:23:03.349Z,98810.48
2018-05-02T06:25:36.915Z,98802.89
2018-05-02T06:28:10.489Z,98810.59
2018-05-02T06:30:44.046Z,98806.23
2018-05-02T06:33:17.638Z,98805.29
2018-05-02T06:35:51.274Z,98797.02
2018-05-02T06:38:24.981Z,98797.16
2018-05-02T06:40:58.575Z,98791.53
2018-05-02T06:43:32.135Z,98801.94
2018-05-02T06:46:05.621Z,98798.34
2018-05-02T06:48:39.408Z,98800.61
2018-05-02T06:51:13.061Z,98802.59
2018-05-02T06:53:46.888Z,98799.02
2018-05-02T06:56:20.558Z,98789.51
2018-05-02T06:58:54.221Z,98789.37
2018-05-02T07:01:27.784Z,98805.91
2018-05-02T07:04:01.404Z,98799.72
2018-05-02T07:06:35.005Z,98791.41
2018-05-02T07:09:08.669Z,98799.22
2018-05-02T07:11:42.251Z,98797.47
2018-05-02T07:14:15.807Z,98809.80
2018-05-02T07:16:49.325Z,98801.07
2018-05-02T07:19:23.049Z,98796.91
2018-05-02T07:21:56.563Z,98792.88
2018-05-02T07:24:30.264Z,98805.73
2018-05-02T07:27:03.920Z,98804.88
2018-05-02T07:29:37.676Z,98802.28
2018-05-02T07:32:11.409Z,98801.23
2018-05-02T07:34:45.216Z,98804.75
2018-05-02T07:37:18.753Z,98806.94
2018-05-02T07:39:52.355Z,98792.52
2018-05-02T07:42:26.004Z,98797.11
2018-05-02T07:44:59.578Z,98799.39
2018-05-02T07:47:33.274Z,98795.83
2018-05-02T07:50:07.132Z,98792.38
2018-05-02T07:52:40.748Z,98787.78
2018-05-02T07:55:14.520Z,98792.87
2018-05-02T07:57:48.212Z,98798.45
2018-05-02T08:00:22.256Z,98798.25
2018-05-02T08:02:55.918Z,98801.34
2018-05-02T08:05:29.991Z,98791.16
2018-05-02T08:08:03.536Z,98793.28
2018-05-02T08:10:37.127Z,98792.25
2018-05-02T08:13:10.865Z,98794.88
2018-05-02T08:15:44.405Z,98804.27
2018-05-02T08:18:18.062Z,98803.48
2018-05-02T08:20:51.644Z,98799.83
2018-05-02T08:23:25.228Z,98800.64
2018-05-02T08:25:58.819Z,98787.44
2018-05-02T08:28:32.554Z,98787.11
2018-05-02T08:31:06.144Z,98781.55
2018-05-02T08:33:39.660Z,98778.03
2018-05-02T08:36:13.259Z,98773.86
2018-05-02T08:38:47.016Z,98780.34
2018-05-02T08:41:20.725Z,98770.06
2018-05-02T08:43:54.240Z,98766.56
2018-05-02T08:46:28.215Z,98761.39
2018-05-02T08:49:01.800Z,98743.70
2018-05-02T08:51:35.552Z,98754.05
2018-05-02T08:54:09.279Z,98756.86
2018-05-02T08:56:42.815Z,98753.72
2018-05-02T08:59:16.496Z,98746.82
2018-05-02T09:01:50.696Z,98744.69
2018-05-02T09:04:24.192Z,98745.48
2018-05-02T09:06:57.924Z,98750.06
2018-05-02T09:09:31.404Z,98748.52
2018-05-02T09:12:04.960Z,98735.54
2018-05-02T09:14:38.525Z,98733.70
2018-05-02T09:17:12.242Z,98730.70
2018-05-02T09:19:45.910Z,98728.34
2018-05-02T09:22:19.530Z,98732.01
2018-05-02T09:24:53.293Z,98728.64
2018-05-02T09:27:27.290Z,98728.30
2018-05-02T09:30:00.884Z,98728.58
2018-05-02T09:32:34.793Z,98723.39
2018-05-02T09:35:08.480Z,98713.92
2018-05-02T09:37:42.473Z,98718.40
2018-05-02T09:40:16.140Z,98711.02
2018-05-02T09:42:49.944Z,98703.97
2018-05-02T09:45:23.507Z,98704.91
2018-05-02T09:47:57.194Z,98705.69
2018-05-02T09:50:30.764Z,98709.33
2018-05-02T09:53:04.334Z,98691.83
2018-05-02T09:55:37.860Z,98688.27
2018-05-02T09:58:11.603Z,98692.62
2018-05-02T10:00:45.224Z,98691.66
2018-05-02T10:03:19.056Z,98684.73
2018-05-02T10:05:52.601Z,98690.37
2018-05-02T10:08:26.195Z,98691.94
2018-05-02T10:10:59.755Z,98677.13
2018-05-02T10:13:33.384Z,98677.81
2018-05-02T10:16:06.892Z,98698.75
2018-05-02T10:18:40.448Z,98681.02
2018-05-02T10:21:14.149Z,98680.53
2018-05-02T10:23:47.749Z,98684.19
2018-05-02T10:26:21.645Z,98684.91
2018-05-02T10:28:55.262Z,98684.58
2018-05-02T10:31:28.816Z,98678.59
2018-05-02T10:34:02.607Z,98678.67
2018-05-02T10:36:36.242Z,98678.17
2018-05-02T10:39:09.724Z,98668.98
2018-05-02T10:41:43.406Z,98667.98
2018-05-02T10:44:17.300Z,98666.16
2018-05-02T10:46:50.784Z,98663.75
2018-05-02T10:49:24.412Z,98664.61
2018-05-02T10:51:58.038Z,98671.81
2018-05-02T10:54:31.656Z,98665.72
2018-05-02T10:57:05.396Z,98662.88
2018-05-02T10:59:38.947Z,98669.13
2018-05-02T11:02:12.528Z,98664.55
2018-05-02T11:04:46.251Z,98660.92
2018-05-02T11:07:19.992Z,98656.72
2018-05-02T11:09:53.695Z,98652.61
2018-05-02T11:12:27.292Z,98647.89
2018-05-02T11:15:00.978Z,98642.05
2018-05-02T11:17:34.564Z,98643.05
2018-05-02T11:20:08.170Z,98640.11
2018-05-02T11:22:41.780Z,98626.92
2018-05-02T11:25:15.418Z,98642.74
2018-05-02T11:27:48.955Z,98643.36
2018-05-02T11:30:22.761Z,98637.23
2018-05-02T11:32:56.425Z,98631.52
2018-05-02T11:35:30.575Z,98631.50
2018-05-02T11:38:04.190Z,98632.02
2018-05-02T11:40:37.749Z,98634.89
2018-05-02T11:43:11.419Z,98630.28
2018-05-02T11:45:44.995Z,98625.31
2018-05-02T11:48:18.598Z,98627.44
2018-05-02T11:50:52.171Z,98611.98
2018-05-02T11:53:25.820Z,98619.81
2018-05-02T11:55:59.400Z,98622.36
2018-05-02T11:58:32.960Z,98622.16
2018-05-02T12:01:06.984Z,98611.79
2018-05-02T12:03:40.690Z,98624.75
2018-05-02T12:06:14.286Z,98611.64
2018-05-02T12:08:48.082Z,98598.55
2018-05-02T12:11:21.668Z,98592.29
2018-05-02T12:13:55.295Z,98606.92
2018-05-02T12:16:28.935Z,98605.80
2018-05-02T12:19:02.509Z,98602.34
2018-05-02T12:21:36.305Z,98600.98
2018-05-02T12:24:10.092Z,98600.16
2018-05-02T12:26:43.710Z,98596.14
2018-05-02T12:29:17.255Z,98595.52
2018-05-02T12:31:50.939Z,98591.78
2018-05-02T12:34:24.611Z,98589.78
2018-05-02T12:36:58.303Z,98581.29
2018-05-02T12:39:31.903Z,98592.52
2018-05-02T12:42:05.511Z,98580.22
2018-05-02T12:44:39.045Z,98574.38
2018-05-02T12:47:15.944Z,98571.72
2018-05-02T12:49:49.476Z,98571.09
2018-05-02T12:52:23.059Z,98569.02
2018-05-02T12:54:56.796Z,98565.28
2018-05-02T12:57:30.390Z,98556.72
2018-05-02T13:00:03.964Z,98553.87
2018-05-02T13:02:37.595Z,98544.48
2018-05-02T13:05:11.540Z,98541.66
2018-05-02T13:07:45.652Z,98536.69
2018-05-02T13:10:19.310Z,98535.05
2018-05-02T13:12:52.860Z,98520.95
2018-05-02T13:15:26.578Z,98523.91
2018-05-02T13:18:00.334Z,98523.73
2018-05-02T13:20:34.007Z,98521.14
2018-05-02T13:23:07.677Z,98512.03
2018-05-02T13:25:41.426Z,98514.53
2018-05-02T13:28:14.960Z,98512.82
2018-05-02T13:30:48.759Z,98511.28
2018-05-02T13:33:22.590Z,98511.78
2018-05-02T13:35:56.300Z,98511.37
2018-05-02T13:38:29.938Z,98506.31
2018-05-02T13:41:03.716Z,98501.98
2018-05-02T13:43:37.354Z,98503.75
2018-05-02T13:46:11.065Z,98498.61
2018-05-02T13:48:44.695Z,98497.83
2018-05-02T13:51:18.443Z,98493.76
2018-05-02T13:53:52.060Z,98489.14
2018-05-02T13:56:25.792Z,98489.80
2018-05-02T13:58:59.311Z,98486.05
2018-05-02T14:01:32.997Z,98486.11
2018-05-02T14:04:06.580Z,98480.46
2018-05-02T14:06:40.135Z,98471.32
2018-05-02T14:09:13.683Z,98468.16
2018-05-02T14:11:47.193Z,98470.67
2018-05-02T14:14:20.828Z,98467.30
2018-05-02T14:16:54.383Z,98462.51
2018-05-02T14:19:28.299Z,98467.41
2018-05-02T14:22:02.163Z,98464.89
2018-05-02T14:24:35.764Z,98466.69
2018-05-02T14:27:09.492Z,98461.23
2018-05-02T14:29:43.248Z,98455.61
2018-05-02T14:32:16.822Z,98474.86
2018-05-02T14:34:50.446Z,98455.75
2018-05-02T14:37:24.046Z,98460.06
2018-05-02T14:39:57.718Z,98460.45
2018-05-02T14:42:31.429Z,98457.52
2018-05-02T14:45:04.916Z,98462.07
2018-05-02T14:47:38.562Z,98457.19
2018-05-02T14:50:12.222Z,98467.44
2018-05-02T14:52:45.911Z,98468.09
2018-05-02T14:55:19.495Z,98465.59
2018-05-02T14:57:53.158Z,98476.48
2018-05-02T15:00:26.808Z,98468.08
2018-05-02T15:03:00.662Z,98464.57
2018-05-02T15:05:34.194Z,98460.56
2018-05-02T15:08:07.760Z,98462.50
2018-05-02T15:10:41.411Z,98462.53
2018-05-02T15:13:15.115Z,98455.45
2018-05-02T15:15:48.786Z,98457.16
2018-05-02T15:18:22.360Z,98453.66
2018-05-02T15:20:56.111Z,98446.89
2018-05-02T15:23:29.675Z,98448.70
2018-05-02T15:26:03.455Z,98443.87
2018-05-02T15:28:37.124Z,98441.52
2018-05-02T15:31:10.944Z,98445.13
2018-05-02T15:33:44.530Z,98435.70
2018-05-02T15:36:18.118Z,98441.40
2018-05-02T15:38:51.807Z,98441.42
2018-05-02T15:41:25.347Z,98438.72
2018-05-02T15:43:59.035Z,98437.14
2018-05-02T15:46:32.760Z,98430.30
2018-05-02T15:49:06.595Z,98433.22
2018-05-02T15:51:40.182Z,98443.32
2018-05-02T15:54:13.904Z,98442.79
2018-05-02T15:56:47.395Z,98441.75
2018-05-02T15:59:20.964Z,98435.64
2018-05-02T16:01:54.514Z,98422.78
2018-05-02T16:04:28.080Z,98419.16
2018-05-02T16:07:01.645Z,98421.12
2018-05-02T16:09:35.393Z,98422.09
2018-05-02T16:12:09.303Z,98424.75
2018-05-02T16:14:43.108Z,98418.93
2018-05-02T16:17:17.087Z,98413.84
2018-05-02T16:19:51.885Z,98416.55
2018-05-02T16:22:25.482Z,98416.63
2018-05-02T16:24:59.067Z,98418.60
2018-05-02T16:27:32.938Z,98420.62
2018-05-02T16:30:06.769Z,98426.38
2018-05-02T16:32:40.400Z,98430.53
2018-05-02T16:35:14.157Z,98424.94
2018-05-02T16:37:48.016Z,98423.10
2018-05-02T16:40:21.637Z,98418.06
2018-05-02T16:42:55.262Z,98420.67
2018-05-02T16:45:29.057Z,98428.47
2018-05-02T16:48:02.696Z,98423.16
2018-05-02T16:50:36.355Z,98428.13
2018-05-02T16:53:10.137Z,98429.00
2018-05-02T16:55:43.761Z,98428.40
2018-05-02T16:58:17.432Z,98427.55
2018-05-02T17:00:51.107Z,98428.56
2018-05-02T17:03:24.759Z,98435.31
2018-05-02T17:05:58.549Z,98435.75
2018-05-02T17:08:32.258Z,98432.80
2018-05-02T17:11:06.254Z,98435.97
2018-05-02T17:13:40.052Z,98437.81
2018-05-02T17:16:13.732Z,98440.84
2018-05-02T17:18:47.436Z,98440.69
2018-05-02T17:21:20.993Z,98436.03
2018-05-02T17:23:54.777Z,98435.59
2018-05-02T17:26:28.493Z,98433.32
2018-05-02T17:29:02.248Z,98433.75
2018-05-02T17:31:35.845Z,98441.81
2018-05-02T17:34:09.659Z,98448.08
2018-05-02T17:36:43.177Z,98441.07
2018-05-02T17:39:17.019Z,98447.72
2018-05-02T17:41:50.588Z,98442.06
2018-05-02T17:44:24.292Z,98443.06
2018-05-02T17:46:58.003Z,98439.23
2018-05-02T17:49:31.572Z,98443.75
2018-05-02T17:52:05.259Z,98449.31
2018-05-02T17:54:38.966Z,98457.48
2018-05-02T17:57:12.766Z,98455.33
2018-05-02T17:59:46.394Z,98466.95
2018-05-02T18:02:19.920Z,98469.91
2018-05-02T18:04:53.516Z,98463.29
2018-05-02T18:07:27.533Z,98462.45
2018-05-02T18:10:01.091Z,98475.47
2018-05-02T18:12:34.841Z,98467.38
2018-05-02T18:15:08.421Z,98463.41
2018-05-02T18:17:42.120Z,98468.05
2018-05-02T18:20:15.887Z,98472.55
2018-05-02T18:22:49.696Z,98471.34
2018-05-02T18:25:23.418Z,98468.60
2018-05-02T18:27:57.022Z,98477.50
2018-05-02T18:30:30.718Z,98476.44
2018-05-02T18:33:04.244Z,98479.10
2018-05-02T18:35:37.807Z,98485.56
2018-05-02T18:38:11.437Z,98485.34
2018-05-02T18:40:45.262Z,98485.39
2018-05-02T18:43:19.267Z,98485.22
2018-05-02T18:45:52.833Z,98487.89
2018-05-02T18:48:26.396Z,98496.59
2018-05-02T18:51:00.125Z,98495.58
2018-05-02T18:53:33.754Z,98498.88
2018-05-02T18:56:07.482Z,98494.73
2018-05-02T18:58:41.383Z,98495.50
2018-05-02T19:01:15.114Z,98495.92
2018-05-02T19:03:49.173Z,98498.03
2018-05-02T19:06:22.857Z,98496.09
2018-05-02T19:08:56.518Z,98484.95
2018-05-02T19:11:30.313Z,98499.98
2018-05-02T19:14:04.090Z,98509.70
2018-05-02T19:16:37.734Z,98509.89
2018-05-02T19:19:17.047Z,98513.73
2018-05-02T19:21:50.839Z,98514.61
2018-05-02T19:24:24.605Z,98518.39
2018-05-02T19:26:58.716Z,98516.94
2018-05-02T19:29:32.520Z,98514.98
2018-05-02T19:32:12.090Z,98526.18
2018-05-02T19:34:45.825Z,98525.67
2018-05-02T19:37:19.463Z,98530.11
2018-05-02T19:39:58.936Z,98531.06
2018-05-02T19:42:38.408Z,98538.52
2018-05-02T19:45:12.220Z,98536.75
2018-05-02T19:47:45.966Z,98540.34
2018-05-02T19:50:19.802Z,98544.27
2018-05-02T19:52:53.645Z,98540.57
2018-05-02T19:55:27.418Z,98536.70
2018-05-02T19:58:01.061Z,98539.24
2018-05-02T20:00:40.840Z,98536.36
2018-05-02T20:03:14.394Z,98545.16
2018-05-02T20:05:48.086Z,98543.45
2018-05-02T20:08:27.399Z,98542.63
2018-05-02T20:11:06.804Z,98549.17
2018-05-02T20:13:46.168Z,98548.38
2018-05-02T20:16:19.905Z,98553.71
2018-05-02T20:18:53.642Z,98550.94
2018-05-02T20:21:27.253Z,98548.31
2018-05-02T20:24:01.278Z,98555.59
2018-05-02T20:26:34.880Z,98559.39
2018-05-02T20:29:08.646Z,98557.57
2018-05-02T20:31:42.391Z,98548.31
2018-05-02T20:34:16.165Z,98555.37
2018-05-02T20:36:50.001Z,98555.72
2018-05-02T20:39:24.012Z,98564.30
2018-05-02T20:41:57.828Z,98564.78
2018-05-02T20:44:31.696Z,98566.72
2018-05-02T20:47:11.699Z,98575.00
2018-05-02T20:49:45.415Z,98574.83
2018-05-02T20:52:19.611Z,98570.41
2018-05-02T20:54:53.515Z,98574.05
2018-05-02T20:57:27.213Z,98573.26
2018-05-02T21:00:01.023Z,98581.67
2018-05-02T21:02:34.788Z,98578.64
2018-05-02T21:05:08.545Z,98576.16
2018-05-02T21:07:42.202Z,98573.42
2018-05-02T21:10:15.893Z,98576.91
2018-05-02T21:12:49.711Z,98581.38
2018-05-02T21:15:23.286Z,98584.56
2018-05-02T21:17:56.921Z,98581.16
2018-05-02T21:20:30.538Z,98584.84
2018-05-02T21:23:04.306Z,98587.67
2018-05-02T21:25:39.723Z,98576.10
2018-05-02T21:28:13.423Z,98582.66
2018-05-02T21:30:47.262Z,98578.45
2018-05-02T21:33:20.824Z,98580.05
2018-05-02T21:35:54.488Z,98581.34
2018-05-02T21:38:28.139Z,98588.31
2018-05-02T21:41:01.891Z,98588.90
2018-05-02T21:43:35.591Z,98594.27
2018-05-02T21:46:09.250Z,98595.72
2018-05-02T21:48:43.007Z,98594.54
2018-05-02T21:51:16.778Z,98603.28
2018-05-02T21:53:50.578Z,98594.38
2018-05-02T21:56:24.668Z,98596.28
2018-05-02T21:58:58.491Z,98605.84
2018-05-02T22:01:32.313Z,98602.83
2018-05-02T22:04:06.025Z,98604.92
2018-05-02T22:06:39.747Z,98604.75
2018-05-02T22:09:13.607Z,98598.84
2018-05-02T22:11:47.276Z,98607.48
2018-05-02T22:14:21.196Z,98609.00
2018-05-02T22:16:55.051Z,98613.00
2018-05-02T22:19:28.804Z,98609.00
2018-05-02T22:22:02.637Z,98612.68
2018-05-02T22:24:36.646Z,98612.78
2018-05-02T22:27:10.407Z,98615.89
2018-05-02T22:29:44.149Z,98616.55
2018-05-02T22:32:17.774Z,98612.38
2018-05-02T22:34:51.484Z,98619.59
2018-05-02T22:37:29.153Z,98623.19
2018-05-02T22:40:04.006Z,98629.89
2018-05-02T22:42:37.838Z,98627.90
2018-05-02T22:45:14.672Z,98630.88
2018-05-02T22:47:49.626Z,98633.34
2018-05-02T22:50:28.382Z,98628.22
2018-05-02T22:53:04.222Z,98630.16
2018-05-02T22:55:39.234Z,98629.41
2018-05-02T22:58:13.019Z,98629.36
2018-05-02T23:06:06.269Z,98632.88
2018-05-02T23:08:40.342Z,98635.53
2018-05-02T23:11:14.399Z,98637.53
2018-05-02T23:13:48.234Z,98640.45
2018-05-02T23:16:22.641Z,98637.98
2018-05-02T23:19:01.557Z,98640.56
2018-05-02T23:21:36.488Z,98649.33
2018-05-02T23:24:10.701Z,98648.05
2018-05-02T23:26:44.619Z,98648.45
2018-05-02T23:29:18.580Z,98653.64
2018-05-02T23:31:57.094Z,98649.01
2018-05-02T23:34:30.996Z,98652.04
2018-05-02T23:37:04.811Z,98647.77
2018-05-02T23:39:38.799Z,98649.24
2018-05-02T23:42:12.644Z,98646.25
2018-05-02T23:44:46.534Z,98638.50
2018-05-02T23:47:20.575Z,98640.62
2018-05-02T23:49:54.213Z,98634.86
2018-05-02T23:52:27.868Z,98634.63
2018-05-02T23:55:01.502Z,98631.11
2018-05-02T23:57:35.065Z,98627.71
